BGTL

Thule Air Base Airport

Thule, Greenland

BGTL 102358Z AUTO 09005KT 9999 CLR M10/M11 A2950 RMK AO2 SNB38E41 SLP978 P0000 60000 T11001108 11093 21107 57009

Observed Flight Rules
Dec-10 @ 23:58 UTC (20 minutes ago) Visual Flight Rules
Wind Visibility Clouds
90° at 5 knots 10,000+ meters
  • Clear skies
Temperatures Readings Precipitation
Current -10°C / 14°F
Dewpoint -11°C / 12°F
Humidity 92%
Altimeter 29.5" Hg
Pressure 997.8 hPa
Elevation 77
Current Rain 0.005
Observed Flight Rules
Dec-10 @ 23:58 UTC
(20 minutes ago)
VFR
Wind Visibility
90° at 5 knots 10,000+ meters
Clouds
  • Clear skies
Temperature Dewpoint
-10°C / 14°F -11°C / 12°F
Humidity Altimeter Pressure
92% 29.5" Hg 997.8 hPa
Current Rain
0.005